Time;durP1;ratioP1;P1;durP2;ratioP2;P2;SDS_P1;SDS_P2;PMS_P1;PMS_P2;Temp;Humidity;BMP_temperature;BMP_pressure;BME280_temperature;BME280_humidity;BME280_pressure;Samples;Min_cycle;Max_cycle;Signal;HPM_P1;HPM_P2
2021/09/05 00:01:44;;;;;;;3.38;2.30;;;22.90;51.60;;;;;;4165497;28;20046;-52
2021/09/05 00:03:46;;;;;;;2.88;2.45;;;22.90;51.40;;;;;;4166421;28;20057;-50
2021/09/05 00:05:48;;;;;;;2.20;2.00;;;22.90;51.70;;;;;;4166275;28;20066;-49
2021/09/05 00:07:50;;;;;;;4.38;2.08;;;22.90;51.80;;;;;;4166277;28;20049;-51
2021/09/05 00:09:52;;;;;;;2.38;2.13;;;22.90;51.60;;;;;;4166479;28;20109;-53
2021/09/05 00:11:54;;;;;;;2.97;2.28;;;22.90;51.70;;;;;;4166285;28;20076;-52
2021/09/05 00:13:56;;;;;;;3.63;2.28;;;22.90;51.70;;;;;;4166245;28;20046;-49
2021/09/05 00:15:58;;;;;;;3.00;2.70;;;22.90;51.20;;;;;;4166332;28;20053;-53
2021/09/05 00:18:01;;;;;;;3.72;2.35;;;22.90;51.60;;;;;;4166241;28;20046;-52
2021/09/05 00:20:04;;;;;;;2.28;1.98;;;22.90;52.10;;;;;;4166260;28;20097;-52
2021/09/05 00:22:06;;;;;;;2.10;1.90;;;22.90;52.30;;;;;;4166333;28;20121;-50
2021/09/05 00:24:08;;;;;;;2.40;2.10;;;22.90;51.60;;;;;;4165214;28;20072;-48
2021/09/05 00:26:10;;;;;;;1.90;1.70;;;22.90;51.60;;;;;;4166040;28;20052;-49
2021/09/05 00:28:12;;;;;;;3.15;2.08;;;22.90;51.50;;;;;;4166066;28;20558;-50
2021/09/05 00:30:14;;;;;;;3.05;2.53;;;22.90;51.30;;;;;;4162934;28;20049;-51
2021/09/05 00:32:16;;;;;;;2.55;2.15;;;22.90;51.70;;;;;;4166059;28;20056;-54
2021/09/05 00:34:18;;;;;;;3.42;2.42;;;22.90;50.90;;;;;;4165878;28;20046;-50
2021/09/05 00:36:20;;;;;;;3.53;2.65;;;22.90;50.60;;;;;;4165835;28;20111;-51
2021/09/05 00:38:23;;;;;;;5.43;2.60;;;22.90;51.40;;;;;;4165796;28;20072;-52
2021/09/05 00:40:25;;;;;;;5.20;2.72;;;22.90;50.90;;;;;;4165819;28;20037;-50
2021/09/05 00:42:28;;;;;;;4.07;2.60;;;22.90;51.00;;;;;;4165917;28;20049;-54
2021/09/05 00:44:30;;;;;;;3.63;2.80;;;22.90;50.70;;;;;;4165999;28;20081;-52
2021/09/05 00:46:33;;;;;;;7.10;3.72;;;22.90;50.60;;;;;;4165760;28;20434;-52
2021/09/05 00:48:35;;;;;;;3.40;3.10;;;23.00;51.20;;;;;;4165537;28;20054;-48
2021/09/05 00:50:38;;;;;;;3.17;2.88;;;22.90;50.20;;;;;;4165478;28;20066;-49
2021/09/05 00:52:40;;;;;;;4.70;3.10;;;22.90;50.40;;;;;;4165651;28;20141;-51
2021/09/05 00:54:43;;;;;;;3.38;2.47;;;22.90;50.10;;;;;;4165835;28;20050;-53
2021/09/05 00:56:45;;;;;;;5.57;3.08;;;22.90;50.40;;;;;;4165807;28;20506;-50
2021/09/05 00:58:47;;;;;;;5.47;3.53;;;22.90;50.20;;;;;;4165489;28;20049;-49
2021/09/05 01:00:49;;;;;;;4.45;2.92;;;22.90;50.40;;;;;;4165577;28;20065;-51
2021/09/05 01:02:51;;;;;;;4.38;2.95;;;22.90;49.90;;;;;;4164644;28;20046;-51
2021/09/05 01:04:53;;;;;;;3.55;2.50;;;22.90;50.00;;;;;;4165362;28;20077;-51
2021/09/05 01:06:55;;;;;;;3.72;3.00;;;22.90;50.30;;;;;;4165543;28;20050;-51
2021/09/05 01:08:57;;;;;;;3.47;2.67;;;22.90;50.60;;;;;;4165386;28;20045;-49
2021/09/05 01:11:00;;;;;;;5.05;3.78;;;22.90;50.00;;;;;;4165446;28;20101;-51
2021/09/05 01:13:02;;;;;;;5.15;2.92;;;22.90;49.70;;;;;;4164451;28;20045;-52
2021/09/05 01:15:06;;;;;;;4.10;3.30;;;22.90;49.70;;;;;;4165415;28;20110;-53
2021/09/05 01:17:11;;;;;;;5.43;2.90;;;22.90;50.50;;;;;;4165404;28;20056;-49
2021/09/05 01:19:21;;;;;;;4.82;3.22;;;22.90;50.30;;;;;;4164786;28;20322;-52
2021/09/05 01:21:23;;;;;;;4.75;2.50;;;22.90;50.50;;;;;;4165372;28;20038;-54
2021/09/05 01:23:25;;;;;;;5.00;3.17;;;22.90;50.20;;;;;;4165404;28;20044;-52
2021/09/05 01:25:27;;;;;;;3.60;2.88;;;22.90;49.90;;;;;;4165326;28;20073;-52
2021/09/05 01:27:29;;;;;;;5.50;2.88;;;22.90;49.90;;;;;;4165176;28;20048;-49
2021/09/05 01:29:31;;;;;;;5.30;2.83;;;22.90;49.50;;;;;;4165158;28;20069;-55
2021/09/05 01:31:40;;;;;;;4.60;2.90;;;22.90;50.20;;;;;;4165173;28;20046;-51
2021/09/05 01:33:42;;;;;;;3.25;2.92;;;22.90;50.30;;;;;;4165014;28;20101;-52
2021/09/05 01:35:44;;;;;;;3.60;3.03;;;22.90;49.50;;;;;;4164890;28;20631;-54
2021/09/05 01:37:46;;;;;;;3.55;2.78;;;22.90;49.90;;;;;;4165125;28;20050;-52
2021/09/05 01:39:48;;;;;;;3.42;2.63;;;22.90;50.00;;;;;;4164949;28;20062;-53
2021/09/05 01:41:50;;;;;;;4.10;3.40;;;22.90;49.60;;;;;;4180427;28;20096;-50
2021/09/05 01:44:04;;;;;;;4.38;3.17;;;22.90;49.60;;;;;;4164919;28;20105;-53
2021/09/05 01:46:06;;;;;;;5.25;3.45;;;22.90;49.30;;;;;;4165069;28;20097;-50
2021/09/05 01:48:08;;;;;;;4.05;3.38;;;22.90;49.10;;;;;;4164875;28;20050;-54
2021/09/05 01:50:11;;;;;;;7.28;3.95;;;22.90;49.20;;;;;;4164598;28;20114;-50
2021/09/05 01:52:13;;;;;;;4.28;2.83;;;22.90;49.20;;;;;;4163935;28;20133;-52
2021/09/05 01:54:15;;;;;;;4.25;3.17;;;22.90;49.30;;;;;;4164771;28;20118;-53
2021/09/05 01:56:17;;;;;;;4.30;3.60;;;22.90;49.10;;;;;;4164965;28;20101;-53
2021/09/05 01:58:19;;;;;;;5.45;3.75;;;22.90;49.40;;;;;;4164718;28;20052;-54
2021/09/05 02:00:21;;;;;;;4.10;2.95;;;22.90;49.10;;;;;;4164700;28;20069;-55
2021/09/05 02:02:23;;;;;;;4.57;3.80;;;22.90;49.00;;;;;;4164726;28;20065;-50
2021/09/05 02:04:25;;;;;;;6.47;3.30;;;22.90;49.00;;;;;;4164542;28;20097;-49
2021/09/05 02:06:27;;;;;;;5.25;2.83;;;22.90;49.10;;;;;;4164807;28;20052;-52
2021/09/05 02:08:31;;;;;;;4.45;3.03;;;22.90;49.20;;;;;;4164673;28;20102;-51
2021/09/05 02:10:33;;;;;;;5.33;3.40;;;22.90;49.20;;;;;;4164674;28;20045;-49
2021/09/05 02:12:35;;;;;;;5.40;3.20;;;22.90;49.10;;;;;;4163764;28;20373;-51
2021/09/05 02:14:37;;;;;;;6.03;3.22;;;22.90;49.10;;;;;;4164629;28;20080;-51
2021/09/05 02:16:39;;;;;;;3.92;3.30;;;22.90;49.30;;;;;;4180065;28;20050;-51
2021/09/05 02:18:42;;;;;;;4.43;3.22;;;22.90;49.40;;;;;;4164372;28;20073;-52
2021/09/05 02:20:44;;;;;;;4.63;3.25;;;22.90;49.00;;;;;;4164572;28;20058;-52
2021/09/05 02:22:46;;;;;;;4.40;3.58;;;22.90;49.20;;;;;;4164431;28;20049;-51
2021/09/05 02:24:48;;;;;;;6.32;3.72;;;22.90;49.20;;;;;;4164572;28;20097;-52
2021/09/05 02:26:50;;;;;;;4.78;3.50;;;22.90;49.10;;;;;;4164439;28;20065;-50
2021/09/05 02:28:52;;;;;;;5.40;3.30;;;22.90;49.10;;;;;;4164633;28;20088;-53
2021/09/05 02:30:54;;;;;;;3.65;3.10;;;22.90;49.00;;;;;;4163647;28;20068;-49
2021/09/05 02:32:56;;;;;;;6.18;3.60;;;22.90;49.10;;;;;;4164302;28;20795;-53
2021/09/05 02:34:58;;;;;;;4.32;3.15;;;22.90;48.90;;;;;;4164106;28;20073;-54
2021/09/05 02:37:01;;;;;;;4.15;2.92;;;22.90;49.20;;;;;;4179750;28;20101;-53
2021/09/05 02:39:04;;;;;;;6.95;3.20;;;22.90;48.90;;;;;;4164086;28;20102;-51
2021/09/05 02:41:06;;;;;;;6.32;3.22;;;22.90;49.10;;;;;;4164353;28;20053;-54
2021/09/05 02:43:07;;;;;;;4.70;3.38;;;22.90;48.80;;;;;;4164165;28;20060;-53
2021/09/05 02:45:10;;;;;;;4.93;3.72;;;22.90;48.80;;;;;;4164324;28;20049;-52
2021/09/05 02:47:13;;;;;;;3.63;3.10;;;22.90;49.00;;;;;;4164338;28;20098;-49
2021/09/05 02:49:15;;;;;;;4.13;3.50;;;22.90;49.10;;;;;;4164212;28;20073;-53
2021/09/05 02:51:17;;;;;;;4.38;3.47;;;22.90;48.90;;;;;;4164293;28;20062;-54
2021/09/05 02:53:19;;;;;;;5.22;4.07;;;22.90;48.90;;;;;;4164506;28;20105;-50
2021/09/05 02:55:21;;;;;;;6.93;3.40;;;22.90;48.80;;;;;;4164338;28;20069;-54
2021/09/05 02:57:23;;;;;;;4.75;3.45;;;22.90;48.70;;;;;;4164289;28;20045;-53
2021/09/05 02:59:25;;;;;;;5.72;3.78;;;22.90;48.70;;;;;;4164118;28;20121;-54
2021/09/05 03:01:27;;;;;;;4.90;3.55;;;22.80;48.70;;;;;;4164199;28;20098;-53
2021/09/05 03:03:29;;;;;;;9.52;3.22;;;22.90;48.50;;;;;;4164241;28;20046;-54
2021/09/05 03:05:32;;;;;;;5.57;4.00;;;22.80;48.40;;;;;;4164187;28;20053;-54
2021/09/05 03:07:34;;;;;;;4.68;3.60;;;22.80;48.30;;;;;;4164101;28;20153;-56
2021/09/05 03:09:36;;;;;;;4.55;3.58;;;22.90;48.40;;;;;;4164132;28;20069;-55
2021/09/05 03:11:38;;;;;;;5.30;3.28;;;22.90;48.20;;;;;;4164154;28;20102;-54
2021/09/05 03:13:42;;;;;;;6.68;3.90;;;22.80;48.00;;;;;;4164243;28;20046;-55
2021/09/05 03:15:44;;;;;;;5.53;4.05;;;22.80;48.10;;;;;;4164363;28;20042;-54
2021/09/05 03:17:46;;;;;;;4.43;3.20;;;22.90;48.00;;;;;;4164045;28;20097;-54
2021/09/05 03:19:48;;;;;;;4.13;3.35;;;22.80;48.10;;;;;;4164036;28;20049;-53
2021/09/05 03:21:50;;;;;;;4.63;4.05;;;22.80;48.00;;;;;;4164074;28;20110;-54
2021/09/05 03:23:51;;;;;;;8.13;4.13;;;22.80;48.00;;;;;;4179594;28;20042;-53
2021/09/05 03:25:53;;;;;;;5.78;3.97;;;22.80;47.90;;;;;;4179661;28;20096;-53
2021/09/05 03:27:55;;;;;;;5.10;3.92;;;22.80;48.00;;;;;;4163880;28;20097;-53
2021/09/05 03:29:57;;;;;;;4.57;4.07;;;22.80;47.90;;;;;;4164029;28;20046;-49
2021/09/05 03:31:59;;;;;;;5.18;3.95;;;22.80;48.00;;;;;;4163938;28;20073;-52
2021/09/05 03:34:01;;;;;;;6.90;3.63;;;22.80;47.90;;;;;;4163709;28;20037;-54
2021/09/05 03:36:06;;;;;;;4.55;3.72;;;22.80;48.00;;;;;;4163969;28;20093;-54
2021/09/05 03:38:08;;;;;;;7.22;4.20;;;22.80;48.00;;;;;;4163850;28;20041;-53
2021/09/05 03:40:11;;;;;;;6.60;4.10;;;22.80;48.00;;;;;;4163930;28;20079;-53
2021/09/05 03:42:13;;;;;;;4.65;3.50;;;22.80;47.80;;;;;;4165207;28;20072;-54
2021/09/05 03:44:15;;;;;;;7.88;4.03;;;22.80;48.00;;;;;;4166741;28;20069;-54
2021/09/05 03:46:17;;;;;;;7.25;4.30;;;22.80;47.90;;;;;;4166641;28;20052;-55
2021/09/05 03:48:19;;;;;;;9.13;4.22;;;22.80;48.00;;;;;;4166672;28;20080;-53
2021/09/05 03:50:21;;;;;;;7.90;4.40;;;22.80;47.90;;;;;;4166657;28;20053;-49
2021/09/05 03:52:25;;;;;;;6.18;4.20;;;22.80;47.90;;;;;;4166549;28;20052;-52
2021/09/05 03:54:27;;;;;;;6.13;4.30;;;22.80;47.90;;;;;;4166518;28;20101;-53
2021/09/05 03:56:29;;;;;;;7.60;4.35;;;22.80;48.00;;;;;;4165592;28;20046;-54
2021/09/05 03:58:31;;;;;;;10.45;3.88;;;22.80;48.00;;;;;;4166368;28;20097;-49
2021/09/05 04:00:34;;;;;;;9.02;4.22;;;22.80;48.00;;;;;;4166551;28;20057;-51
2021/09/05 04:02:36;;;;;;;5.88;4.50;;;22.80;48.00;;;;;;4166267;28;20042;-50
2021/09/05 04:04:38;;;;;;;7.55;4.28;;;22.70;47.90;;;;;;4166359;28;20046;-55
2021/09/05 04:06:44;;;;;;;10.52;4.75;;;22.80;47.90;;;;;;4166527;28;20045;-52
2021/09/05 04:08:49;;;;;;;6.55;4.65;;;22.80;47.90;;;;;;4166457;28;20073;-52
2021/09/05 04:10:51;;;;;;;6.45;4.30;;;22.70;48.00;;;;;;4166452;28;20081;-48
2021/09/05 04:12:53;;;;;;;6.40;4.25;;;22.80;47.90;;;;;;4166395;28;20101;-52
2021/09/05 04:14:55;;;;;;;5.53;4.35;;;22.80;48.00;;;;;;4166387;28;20204;-50
2021/09/05 04:16:57;;;;;;;7.82;3.97;;;22.80;48.00;;;;;;4166447;28;20105;-51
2021/09/05 04:18:59;;;;;;;8.15;5.38;;;22.80;48.10;;;;;;4166091;28;20034;-51
2021/09/05 04:21:01;;;;;;;9.30;4.90;;;22.80;48.10;;;;;;4166163;28;20123;-49
2021/09/05 04:23:03;;;;;;;7.20;4.45;;;22.80;48.00;;;;;;4166198;28;20097;-54
2021/09/05 04:25:06;;;;;;;7.32;4.57;;;22.80;48.00;;;;;;4166270;28;20042;-51
2021/09/05 04:27:09;;;;;;;6.80;4.40;;;22.80;48.10;;;;;;4166280;28;20043;-52
2021/09/05 04:29:11;;;;;;;6.00;4.30;;;22.80;48.10;;;;;;4166116;28;20052;-52
2021/09/05 04:31:13;;;;;;;7.47;4.93;;;22.80;48.20;;;;;;4165086;28;20076;-51
2021/09/05 04:33:15;;;;;;;5.80;4.68;;;22.80;48.20;;;;;;4165940;28;20073;-52
2021/09/05 04:35:17;;;;;;;6.40;4.45;;;22.70;48.30;;;;;;4181531;28;20152;-52
2021/09/05 04:37:19;;;;;;;6.10;5.10;;;22.80;48.30;;;;;;4166077;28;20065;-51
2021/09/05 04:39:21;;;;;;;6.50;5.05;;;22.80;48.30;;;;;;4165968;28;20094;-51
2021/09/05 04:41:23;;;;;;;6.18;4.88;;;22.80;48.40;;;;;;4164924;28;20046;-50
2021/09/05 04:43:25;;;;;;;8.02;5.38;;;22.80;48.50;;;;;;4165880;28;20072;-50
2021/09/05 04:45:27;;;;;;;8.07;5.68;;;22.80;48.50;;;;;;4165828;28;20097;-51
2021/09/05 04:47:29;;;;;;;10.98;5.35;;;22.70;48.60;;;;;;4165844;28;20072;-53
2021/09/05 04:49:32;;;;;;;9.32;6.22;;;22.80;48.60;;;;;;4165541;28;20069;-52
2021/09/05 04:51:34;;;;;;;7.38;4.72;;;22.80;48.60;;;;;;4165556;28;20396;-49
2021/09/05 04:53:36;;;;;;;8.88;5.55;;;22.80;48.70;;;;;;4164821;28;20052;-50
2021/09/05 04:55:38;;;;;;;12.88;7.00;;;22.80;48.70;;;;;;4165643;28;20049;-55
2021/09/05 04:57:40;;;;;;;7.78;5.68;;;22.70;48.70;;;;;;4181245;28;20037;-51
2021/09/05 04:59:42;;;;;;;7.63;5.18;;;22.80;48.80;;;;;;4165731;28;20056;-51
2021/09/05 05:01:44;;;;;;;7.28;5.57;;;22.80;48.80;;;;;;4165475;28;20050;-50
2021/09/05 05:03:47;;;;;;;11.60;5.65;;;22.80;48.90;;;;;;4165534;28;20042;-49
2021/09/05 05:06:09;;;;;;;9.20;5.53;;;22.80;48.80;;;;;;4165422;28;20057;-51
2021/09/05 05:08:11;;;;;;;9.95;6.72;;;22.80;48.90;;;;;;4165389;28;20097;-53
2021/09/05 05:10:13;;;;;;;8.75;5.72;;;22.80;49.00;;;;;;4165489;28;20042;-51
2021/09/05 05:12:15;;;;;;;11.25;6.78;;;22.80;48.90;;;;;;4165322;28;20050;-49
2021/09/05 05:14:17;;;;;;;8.32;5.85;;;22.80;49.00;;;;;;4165248;28;20102;-48
2021/09/05 05:16:22;;;;;;;7.30;5.38;;;22.80;49.00;;;;;;4165350;28;20088;-53
2021/09/05 05:18:24;;;;;;;7.72;5.80;;;22.80;49.10;;;;;;4165050;28;20046;-50
2021/09/05 05:20:26;;;;;;;7.75;6.13;;;22.80;49.10;;;;;;4165087;28;20048;-53
2021/09/05 05:22:28;;;;;;;7.57;5.70;;;22.80;49.10;;;;;;4165279;28;20094;-48
2021/09/05 05:24:30;;;;;;;10.75;7.03;;;22.80;49.30;;;;;;4164268;28;20153;-54
2021/09/05 05:26:32;;;;;;;9.40;6.32;;;22.80;49.20;;;;;;4165106;28;20101;-49
2021/09/05 05:28:34;;;;;;;8.85;5.72;;;22.80;49.20;;;;;;4165074;28;20046;-53
2021/09/05 05:30:36;;;;;;;8.00;5.82;;;22.80;49.20;;;;;;4165029;28;20048;-53
2021/09/05 05:32:39;;;;;;;9.75;6.22;;;22.80;49.30;;;;;;4180461;28;20051;-51
2021/09/05 05:34:40;;;;;;;10.50;6.25;;;22.80;49.30;;;;;;4165063;28;20125;-52
2021/09/05 05:36:42;;;;;;;12.07;6.13;;;22.80;49.30;;;;;;4164827;28;20071;-52
2021/09/05 05:38:44;;;;;;;6.95;5.40;;;22.80;49.30;;;;;;4164869;28;20069;-52
2021/09/05 05:40:46;;;;;;;10.18;6.38;;;22.80;49.30;;;;;;4164867;28;20097;-52
2021/09/05 05:42:49;;;;;;;10.10;6.50;;;22.80;49.30;;;;;;4164992;28;20102;-51
2021/09/05 05:44:51;;;;;;;7.47;5.55;;;22.80;49.40;;;;;;4164197;28;20046;-54
2021/09/05 05:46:53;;;;;;;5.90;4.43;;;22.80;49.40;;;;;;4164792;28;20102;-49
2021/09/05 05:48:55;;;;;;;8.10;4.47;;;22.80;50.30;;;;;;4164868;28;20052;-54
2021/09/05 05:50:57;;;;;;;7.93;6.40;;;22.80;49.70;;;;;;4164851;28;20060;-49
2021/09/05 05:52:59;;;;;;;9.20;5.63;;;22.80;49.40;;;;;;4164822;28;20097;-50
2021/09/05 05:55:01;;;;;;;8.75;6.68;;;22.80;49.40;;;;;;4164974;28;20098;-54
2021/09/05 05:57:04;;;;;;;10.20;6.10;;;22.80;49.50;;;;;;4164870;28;20049;-49
2021/09/05 05:59:06;;;;;;;11.23;6.90;;;22.80;49.50;;;;;;4164691;28;20657;-49
2021/09/05 06:01:08;;;;;;;6.95;5.43;;;22.80;49.60;;;;;;4164504;28;20046;-53
2021/09/05 06:03:11;;;;;;;6.85;5.30;;;22.80;50.40;;;;;;4164615;28;20041;-49
2021/09/05 06:05:13;;;;;;;12.35;6.93;;;22.80;50.20;;;;;;4163472;28;20149;-54
2021/09/05 06:07:15;;;;;;;5.97;4.78;;;22.80;49.80;;;;;;4164760;28;20084;-51
2021/09/05 06:09:17;;;;;;;8.82;6.78;;;22.80;50.20;;;;;;4163659;28;20073;-50
2021/09/05 06:11:19;;;;;;;8.90;6.35;;;22.90;49.80;;;;;;4164300;28;20038;-51
2021/09/05 06:13:21;;;;;;;7.50;5.70;;;22.80;50.00;;;;;;4164417;28;20048;-53
2021/09/05 06:15:24;;;;;;;8.48;5.85;;;22.90;50.40;;;;;;4164624;28;20105;-49
2021/09/05 06:17:26;;;;;;;7.78;6.18;;;22.80;50.60;;;;;;4164400;28;20080;-52
2021/09/05 06:19:28;;;;;;;7.90;4.97;;;22.80;50.20;;;;;;4164576;28;20101;-52
2021/09/05 06:21:30;;;;;;;8.85;5.10;;;22.80;50.60;;;;;;4164474;28;20042;-51
2021/09/05 06:23:32;;;;;;;7.78;5.68;;;22.90;50.80;;;;;;4164434;28;20093;-51
2021/09/05 06:25:34;;;;;;;9.38;6.05;;;22.80;50.60;;;;;;4164475;28;20049;-51
2021/09/05 06:27:36;;;;;;;5.47;4.35;;;22.80;50.60;;;;;;4164438;28;20045;-55
2021/09/05 06:29:38;;;;;;;9.40;6.65;;;22.80;50.90;;;;;;4164481;28;20050;-50
2021/09/05 06:31:40;;;;;;;6.78;5.60;;;22.80;50.20;;;;;;4164267;28;20056;-53
2021/09/05 06:33:43;;;;;;;9.77;6.70;;;22.80;50.40;;;;;;4163264;28;20054;-51
2021/09/05 06:35:45;;;;;;;10.55;7.63;;;22.80;50.20;;;;;;4164380;28;20105;-55
2021/09/05 06:37:46;;;;;;;11.27;8.32;;;22.80;50.30;;;;;;4164299;28;20045;-54
2021/09/05 06:39:52;;;;;;;9.65;5.70;;;22.90;50.40;;;;;;4164285;28;20072;-52
2021/09/05 06:41:54;;;;;;;10.63;7.15;;;22.90;50.90;;;;;;4164491;28;20065;-53
2021/09/05 06:43:57;;;;;;;11.30;7.00;;;22.90;50.70;;;;;;4164274;28;20102;-52
2021/09/05 06:45:59;;;;;;;12.48;6.85;;;22.90;50.30;;;;;;4164204;28;20043;-52
2021/09/05 06:48:14;;;;;;;6.15;4.95;;;22.80;51.10;;;;;;4164290;28;20057;-53
2021/09/05 06:50:16;;;;;;;7.68;5.95;;;22.90;51.90;;;;;;4164210;28;20105;-52
2021/09/05 06:52:18;;;;;;;6.25;5.57;;;22.80;51.10;;;;;;4164198;28;20060;-52
2021/09/05 06:54:20;;;;;;;7.57;6.25;;;22.90;51.60;;;;;;4164074;28;20038;-53
2021/09/05 06:56:22;;;;;;;8.00;6.28;;;22.90;51.20;;;;;;4164061;28;20044;-49
2021/09/05 06:58:24;;;;;;;8.13;6.47;;;22.90;51.40;;;;;;4164128;28;20073;-53
2021/09/05 07:00:26;;;;;;;13.40;8.23;;;22.80;51.10;;;;;;4163938;28;20042;-53
2021/09/05 07:02:28;;;;;;;11.13;8.45;;;22.90;50.60;;;;;;4164028;28;20069;-54
2021/09/05 07:04:32;;;;;;;7.78;5.80;;;22.80;50.70;;;;;;4164120;28;20052;-50
2021/09/05 07:06:34;;;;;;;8.98;7.35;;;22.80;52.20;;;;;;4164067;28;20093;-51
2021/09/05 07:08:36;;;;;;;7.85;6.35;;;22.80;51.00;;;;;;4164182;28;20102;-50
2021/09/05 07:10:39;;;;;;;11.70;8.00;;;22.80;51.40;;;;;;4164259;28;20062;-51
2021/09/05 07:12:41;;;;;;;8.38;7.40;;;22.80;50.70;;;;;;4179628;28;20042;-52
2021/09/05 07:14:43;;;;;;;8.15;6.90;;;22.80;50.90;;;;;;4164083;28;20050;-52
2021/09/05 07:16:45;;;;;;;11.15;7.53;;;22.80;51.20;;;;;;4164760;28;20056;-49
2021/09/05 07:18:47;;;;;;;8.13;6.63;;;22.80;50.70;;;;;;4167092;28;20053;-53
2021/09/05 07:20:50;;;;;;;10.20;6.95;;;22.80;51.70;;;;;;4166881;28;20071;-55
2021/09/05 07:22:52;;;;;;;13.63;8.45;;;22.80;51.20;;;;;;4167246;28;20098;-53
2021/09/05 07:24:54;;;;;;;7.65;6.20;;;22.80;50.90;;;;;;4167235;28;20065;-54
2021/09/05 07:26:56;;;;;;;9.98;5.57;;;22.80;51.50;;;;;;4167073;28;20088;-52
2021/09/05 07:28:58;;;;;;;9.18;6.28;;;22.80;52.00;;;;;;4166930;28;20038;-50
2021/09/05 07:31:00;;;;;;;7.88;6.53;;;22.90;52.30;;;;;;4165880;28;20057;-53
2021/09/05 07:33:02;;;;;;;8.13;6.32;;;22.80;52.20;;;;;;4166929;28;20128;-54
2021/09/05 07:35:06;;;;;;;11.85;8.52;;;22.80;52.60;;;;;;4166934;28;20122;-54
2021/09/05 07:37:08;;;;;;;10.43;6.50;;;22.80;51.10;;;;;;4165832;28;20730;-50
2021/09/05 07:39:11;;;;;;;12.98;8.27;;;22.80;51.70;;;;;;4166554;28;20050;-48
2021/09/05 07:41:13;;;;;;;8.35;6.30;;;22.80;50.80;;;;;;4165968;28;20052;-53
2021/09/05 07:43:15;;;;;;;8.15;6.65;;;22.80;52.00;;;;;;4166717;28;20212;-54
2021/09/05 07:45:18;;;;;;;10.38;7.13;;;22.90;52.20;;;;;;4166597;28;20106;-49
2021/09/05 07:47:20;;;;;;;11.23;7.25;;;22.90;51.30;;;;;;4166870;28;20076;-51
2021/09/05 07:49:22;;;;;;;11.55;7.78;;;22.90;51.20;;;;;;4166519;28;20062;-47
2021/09/05 07:51:24;;;;;;;7.03;6.32;;;22.90;51.10;;;;;;4166661;28;20066;-51
2021/09/05 07:53:26;;;;;;;9.02;7.03;;;22.90;51.40;;;;;;4166648;28;20105;-53
2021/09/05 07:55:28;;;;;;;7.90;6.03;;;22.90;51.10;;;;;;4166632;28;20109;-50
2021/09/05 07:57:30;;;;;;;10.05;7.03;;;22.90;51.00;;;;;;4166795;28;20052;-52
2021/09/05 07:59:32;;;;;;;7.32;6.05;;;22.90;51.10;;;;;;4166539;28;20046;-51
2021/09/05 08:01:34;;;;;;;11.30;7.75;;;22.90;51.40;;;;;;4166349;28;20037;-54
2021/09/05 08:03:41;;;;;;;9.65;6.93;;;22.90;51.10;;;;;;4166506;28;20064;-50
2021/09/05 08:05:44;;;;;;;10.95;7.78;;;22.90;51.20;;;;;;4166360;28;20059;-51
2021/09/05 08:07:46;;;;;;;7.22;6.40;;;22.90;50.90;;;;;;4166444;28;20069;-52
2021/09/05 08:09:48;;;;;;;12.07;8.00;;;22.90;51.30;;;;;;4166419;28;20109;-51
2021/09/05 08:11:54;;;;;;;6.70;5.90;;;22.90;51.00;;;;;;4166418;28;20061;-52
2021/09/05 08:13:56;;;;;;;9.43;7.85;;;22.90;51.00;;;;;;4166431;28;20057;-51
2021/09/05 08:16:00;;;;;;;10.32;7.03;;;22.90;51.00;;;;;;4166161;28;20049;-51
2021/09/05 08:18:03;;;;;;;9.50;7.43;;;22.90;51.20;;;;;;4166281;28;20057;-54
2021/09/05 08:20:06;;;;;;;8.85;6.57;;;22.90;51.00;;;;;;4166136;28;20053;-52
2021/09/05 08:22:09;;;;;;;10.73;7.45;;;22.90;51.50;;;;;;4166162;28;20046;-51
2021/09/05 08:24:11;;;;;;;9.90;7.55;;;22.90;51.40;;;;;;4166077;28;20048;-51
2021/09/05 08:26:13;;;;;;;9.30;7.70;;;22.90;51.20;;;;;;4166345;28;20053;-51
2021/09/05 08:28:15;;;;;;;8.32;6.55;;;22.90;51.10;;;;;;4166212;28;20038;-52
2021/09/05 08:30:17;;;;;;;9.73;7.05;;;22.90;51.30;;;;;;4165921;28;20066;-51
2021/09/05 08:32:19;;;;;;;10.13;7.60;;;22.90;51.60;;;;;;4166051;28;20057;-50
2021/09/05 08:34:21;;;;;;;9.23;7.13;;;22.90;51.30;;;;;;4165942;28;20056;-52
2021/09/05 08:36:23;;;;;;;8.82;6.90;;;22.90;51.50;;;;;;4181660;28;20052;-50
2021/09/05 08:38:25;;;;;;;10.02;7.25;;;22.90;51.10;;;;;;4166112;28;20128;-52
2021/09/05 08:40:28;;;;;;;8.88;6.65;;;22.90;51.30;;;;;;4165933;28;20042;-49
2021/09/05 08:42:33;;;;;;;9.27;6.38;;;22.90;51.10;;;;;;4165930;28;20057;-52
2021/09/05 08:44:35;;;;;;;;;;;22.90;51.60;;;;;;4166116;28;20073;-50
2021/09/05 08:46:38;;;;;;;10.65;6.85;;;22.90;51.20;;;;;;4165816;28;19940;-52
2021/09/05 08:48:42;;;;;;;9.23;7.50;;;22.90;51.20;;;;;;4165824;28;20046;-52
2021/09/05 08:50:45;;;;;;;9.20;7.38;;;22.90;51.20;;;;;;4181347;28;20309;-51
2021/09/05 08:52:47;;;;;;;8.23;6.72;;;22.90;50.90;;;;;;4165775;28;20050;-52
2021/09/05 08:54:49;;;;;;;9.27;7.78;;;22.90;51.20;;;;;;4165639;28;20046;-52
2021/09/05 08:56:53;;;;;;;9.27;7.10;;;22.90;51.00;;;;;;4165607;28;20498;-51
2021/09/05 08:58:55;;;;;;;12.48;8.77;;;22.90;51.10;;;;;;4181326;28;20076;-51
2021/09/05 09:00:57;;;;;;;9.05;7.03;;;22.90;51.00;;;;;;4165343;28;20065;-51
2021/09/05 09:03:00;;;;;;;9.43;6.95;;;22.90;51.20;;;;;;4165747;28;20066;-51
2021/09/05 09:05:03;;;;;;;8.80;7.07;;;22.90;51.30;;;;;;4165737;28;20118;-51
2021/09/05 09:07:14;;;;;;;9.15;6.88;;;22.90;51.30;;;;;;4165479;28;20061;-53
2021/09/05 09:09:16;;;;;;;8.55;6.63;;;22.90;51.50;;;;;;4165658;28;20056;-54
2021/09/05 09:11:18;;;;;;;10.35;7.50;;;22.90;51.40;;;;;;4165346;28;20073;-53
2021/09/05 09:13:38;;;;;;;10.48;6.90;;;22.90;51.30;;;;;;4165189;28;20077;-53
2021/09/05 09:15:40;;;;;;;8.50;6.93;;;22.90;51.50;;;;;;4165265;28;20097;-50
2021/09/05 09:17:42;;;;;;;8.23;6.70;;;22.90;51.60;;;;;;4165366;28;20099;-50
2021/09/05 09:19:46;;;;;;;8.35;6.68;;;22.90;51.50;;;;;;4165397;28;20046;-50
2021/09/05 09:21:48;;;;;;;10.52;7.00;;;22.90;51.70;;;;;;4165434;28;20068;-51
2021/09/05 09:23:50;;;;;;;9.23;7.30;;;22.90;51.40;;;;;;4165175;28;20101;-52
2021/09/05 09:26:10;;;;;;;9.98;7.97;;;22.90;51.50;;;;;;4165304;28;20072;-51
2021/09/05 09:28:36;;;;;;;8.35;6.55;;;22.90;51.50;;;;;;4165303;28;20046;-52
2021/09/05 09:30:38;;;;;;;9.25;6.50;;;22.90;51.80;;;;;;4165164;28;20053;-52
2021/09/05 09:32:49;;;;;;;10.15;6.72;;;22.90;52.00;;;;;;4165173;28;20050;-51
2021/09/05 09:34:53;;;;;;;8.63;6.43;;;22.90;51.90;;;;;;4165108;28;20088;-54
2021/09/05 09:36:59;;;;;;;8.77;6.75;;;22.90;51.90;;;;;;4165226;28;20069;-50
2021/09/05 09:39:05;;;;;;;8.95;6.68;;;22.90;51.90;;;;;;4164968;28;20101;-52
2021/09/05 09:41:17;;;;;;;8.95;6.93;;;22.90;52.20;;;;;;4165010;28;20102;-54
2021/09/05 09:43:22;;;;;;;8.55;6.60;;;22.90;51.70;;;;;;4164907;28;20098;-52
2021/09/05 09:45:24;;;;;;;8.40;7.20;;;22.90;51.80;;;;;;4164846;28;20042;-54
2021/09/05 09:47:47;;;;;;;8.40;7.43;;;22.90;51.90;;;;;;4165016;28;20046;-50
2021/09/05 09:49:51;;;;;;;7.82;7.03;;;22.90;51.90;;;;;;4164922;28;20058;-51
2021/09/05 09:51:57;;;;;;;9.20;6.97;;;22.90;51.90;;;;;;4164931;28;20073;-50
2021/09/05 09:54:00;;;;;;;7.43;6.68;;;22.90;51.70;;;;;;4164853;28;20097;-51
2021/09/05 09:56:02;;;;;;;9.07;6.65;;;22.90;52.30;;;;;;4164920;28;20053;-51
2021/09/05 09:58:04;;;;;;;7.63;6.82;;;22.90;52.10;;;;;;4164846;28;20052;-53
2021/09/05 10:00:07;;;;;;;9.00;6.82;;;22.90;52.00;;;;;;4164575;28;20041;-54
2021/09/05 10:02:16;;;;;;;8.80;7.43;;;22.90;51.90;;;;;;4164763;28;20042;-53
2021/09/05 10:04:19;;;;;;;8.05;6.10;;;22.90;52.20;;;;;;4164759;28;20042;-54
2021/09/05 10:06:26;;;;;;;7.50;6.40;;;22.90;52.40;;;;;;4164796;28;20093;-53
2021/09/05 10:08:32;;;;;;;8.68;7.07;;;22.90;51.60;;;;;;4164678;28;20065;-52
2021/09/05 10:10:34;;;;;;;8.90;6.82;;;22.90;52.20;;;;;;4164733;28;20077;-52
2021/09/05 10:12:38;;;;;;;10.00;7.07;;;22.90;52.30;;;;;;4164776;28;20041;-51
2021/09/05 10:14:41;;;;;;;10.60;7.23;;;22.90;51.60;;;;;;4164702;28;20042;-52
2021/09/05 10:16:43;;;;;;;8.97;6.27;;;22.90;51.90;;;;;;4164657;28;20045;-54
2021/09/05 10:18:48;;;;;;;8.65;6.90;;;22.90;51.70;;;;;;4164664;28;20080;-55
2021/09/05 10:20:50;;;;;;;8.77;7.05;;;22.90;51.60;;;;;;4179969;28;20076;-52
2021/09/05 10:22:53;;;;;;;7.80;6.43;;;22.90;51.60;;;;;;4164565;28;20062;-54
2021/09/05 10:24:54;;;;;;;7.15;6.38;;;22.90;52.20;;;;;;4164536;28;20097;-54
2021/09/05 10:27:04;;;;;;;7.53;6.72;;;22.90;52.00;;;;;;4164711;28;20101;-55
2021/09/05 10:29:13;;;;;;;7.80;6.65;;;22.90;51.80;;;;;;4164484;28;20042;-54
2021/09/05 10:31:42;;;;;;;9.07;6.78;;;22.90;52.30;;;;;;4164411;28;20102;-52
2021/09/05 10:33:44;;;;;;;8.15;6.90;;;22.90;51.80;;;;;;4164046;28;20054;-53
2021/09/05 10:35:47;;;;;;;8.38;7.10;;;22.90;51.70;;;;;;4164425;28;20129;-53
2021/09/05 10:37:49;;;;;;;7.05;6.10;;;22.90;51.70;;;;;;4164512;28;20073;-53
2021/09/05 10:40:11;;;;;;;7.38;6.38;;;22.90;52.70;;;;;;4164529;28;20107;-51